createdAt,value
2017-08-06T00:02:00.744Z,2.00
2017-08-06T00:04:28.199Z,1.90
2017-08-06T00:06:55.654Z,2.17
2017-08-06T00:09:23.095Z,2.40
2017-08-06T00:11:50.543Z,2.00
2017-08-06T00:14:17.991Z,2.33
2017-08-06T00:16:46.199Z,2.00
2017-08-06T00:19:13.645Z,2.20
2017-08-06T00:21:41.087Z,2.20
2017-08-06T00:24:08.524Z,2.10
2017-08-06T00:26:35.982Z,2.00
2017-08-06T00:29:04.195Z,2.10
2017-08-06T00:31:31.652Z,2.40
2017-08-06T00:33:59.090Z,2.07
2017-08-06T00:36:26.564Z,1.60
2017-08-06T00:38:54.011Z,1.80
2017-08-06T00:41:21.451Z,2.00
2017-08-06T00:43:48.899Z,1.80
2017-08-06T00:46:16.343Z,2.87
2017-08-06T00:48:44.559Z,2.63
2017-08-06T00:51:11.995Z,2.60
2017-08-06T00:53:39.438Z,2.40
2017-08-06T00:56:07.648Z,2.60
2017-08-06T00:58:35.135Z,2.10
2017-08-06T01:01:02.599Z,1.70
2017-08-06T01:03:30.059Z,2.30
2017-08-06T01:05:57.511Z,2.20
2017-08-06T01:08:24.967Z,1.80
2017-08-06T01:10:52.406Z,2.37
2017-08-06T01:13:19.863Z,2.40
2017-08-06T01:15:47.307Z,1.87
2017-08-06T01:18:14.756Z,2.10
2017-08-06T01:20:42.206Z,1.90
2017-08-06T01:23:09.650Z,1.90
2017-08-06T01:25:37.100Z,1.80
2017-08-06T01:28:04.535Z,1.87
2017-08-06T01:30:32.751Z,1.80
2017-08-06T01:33:00.191Z,1.70
2017-08-06T01:35:27.638Z,1.70
2017-08-06T01:37:55.091Z,1.60
2017-08-06T01:40:23.299Z,1.90
2017-08-06T01:42:50.736Z,1.77
2017-08-06T01:45:18.204Z,1.33
2017-08-06T01:47:45.648Z,1.63
2017-08-06T01:50:13.086Z,1.60
2017-08-06T01:52:40.536Z,1.80
2017-08-06T01:55:07.987Z,2.00
2017-08-06T01:57:36.203Z,1.50
2017-08-06T02:00:03.660Z,1.90
2017-08-06T02:02:31.115Z,1.70
2017-08-06T02:04:58.554Z,2.17
2017-08-06T02:07:26.002Z,1.60
2017-08-06T02:09:53.447Z,1.83
2017-08-06T02:12:21.659Z,1.70
2017-08-06T02:14:49.095Z,1.70
2017-08-06T02:17:16.551Z,1.57
2017-08-06T02:19:43.987Z,1.77
2017-08-06T02:22:12.199Z,1.50
2017-08-06T02:24:39.662Z,2.00
2017-08-06T02:27:07.111Z,1.70
2017-08-06T02:29:34.562Z,1.67
2017-08-06T02:32:02.000Z,1.90
2017-08-06T02:34:29.463Z,1.97
2017-08-06T02:36:56.894Z,1.70
2017-08-06T02:39:24.342Z,2.00
2017-08-06T02:41:52.552Z,1.90
2017-08-06T02:44:19.999Z,1.70
2017-08-06T02:46:47.439Z,1.60
2017-08-06T02:49:15.651Z,1.60
2017-08-06T02:51:43.090Z,1.40
2017-08-06T02:54:10.555Z,1.77
2017-08-06T02:56:37.991Z,1.70
2017-08-06T02:59:05.435Z,1.63
2017-08-06T03:01:32.885Z,2.07
2017-08-06T03:04:01.087Z,1.80
2017-08-06T03:06:28.534Z,1.70
2017-08-06T03:08:57.559Z,1.80
2017-08-06T03:11:25.011Z,1.60
2017-08-06T03:13:52.456Z,1.53
2017-08-06T03:16:19.894Z,2.20
2017-08-06T03:18:47.342Z,1.60
2017-08-06T03:21:15.551Z,1.67
2017-08-06T03:23:42.991Z,1.70
2017-08-06T03:26:10.434Z,1.60
2017-08-06T03:28:37.873Z,1.60
2017-08-06T03:31:06.097Z,1.70
2017-08-06T03:33:33.535Z,1.40
2017-08-06T03:36:00.979Z,1.47
2017-08-06T03:38:28.427Z,1.50
2017-08-06T03:40:56.639Z,1.60
2017-08-06T03:43:24.093Z,1.70
2017-08-06T03:45:51.534Z,1.40
2017-08-06T03:48:18.980Z,1.50
2017-08-06T03:50:46.410Z,2.00
2017-08-06T03:53:14.626Z,1.77
2017-08-06T03:55:42.067Z,1.63
2017-08-06T03:58:10.286Z,1.33
2017-08-06T04:00:37.723Z,1.67
2017-08-06T04:03:05.178Z,1.37
2017-08-06T04:05:32.628Z,1.37
2017-08-06T04:08:00.057Z,1.80
2017-08-06T04:10:28.267Z,1.43
2017-08-06T04:12:55.718Z,1.63
2017-08-06T04:15:23.180Z,1.40
2017-08-06T04:17:50.614Z,1.90
2017-08-06T04:20:18.063Z,1.80
2017-08-06T04:22:45.519Z,1.50
2017-08-06T04:25:12.958Z,1.70
2017-08-06T04:27:41.176Z,1.70
2017-08-06T04:30:08.630Z,1.70
2017-08-06T04:32:36.074Z,1.77
2017-08-06T04:35:03.540Z,1.77
2017-08-06T04:37:30.970Z,1.43
2017-08-06T04:39:58.411Z,1.37
2017-08-06T04:42:26.631Z,2.03
2017-08-06T04:44:54.083Z,1.63
2017-08-06T04:47:21.547Z,1.77
2017-08-06T04:49:48.998Z,1.70
2017-08-06T04:52:16.460Z,1.53
2017-08-06T04:54:43.911Z,1.63
2017-08-06T04:57:11.367Z,1.60
2017-08-06T04:59:38.810Z,1.60
2017-08-06T05:02:06.247Z,1.87
2017-08-06T05:04:33.683Z,1.83
2017-08-06T05:07:01.912Z,1.87
2017-08-06T05:09:29.350Z,2.00
2017-08-06T05:11:56.786Z,1.90
2017-08-06T05:14:24.996Z,2.13
2017-08-06T05:16:52.449Z,1.90
2017-08-06T05:19:19.900Z,2.13
2017-08-06T05:21:47.335Z,2.47
2017-08-06T05:24:14.813Z,2.20
2017-08-06T05:26:42.246Z,2.93
2017-08-06T05:29:09.706Z,2.63
2017-08-06T05:31:37.142Z,2.90
2017-08-06T05:34:05.361Z,2.70
2017-08-06T05:36:32.818Z,2.40
2017-08-06T05:39:00.289Z,2.60
2017-08-06T05:41:27.732Z,2.20
2017-08-06T05:43:55.185Z,2.40
2017-08-06T05:46:22.642Z,2.03
2017-08-06T05:48:50.087Z,2.37
2017-08-06T05:51:17.526Z,2.20
2017-08-06T05:53:44.989Z,2.50
2017-08-06T05:56:12.435Z,1.90
2017-08-06T05:58:39.878Z,2.17
2017-08-06T06:01:08.134Z,2.33
2017-08-06T06:03:35.575Z,2.37
2017-08-06T06:06:03.055Z,2.40
2017-08-06T06:08:30.499Z,2.23
2017-08-06T06:10:58.074Z,2.53
2017-08-06T06:13:25.515Z,2.87
2017-08-06T06:15:52.960Z,2.37
2017-08-06T06:18:20.417Z,2.30
2017-08-06T06:20:47.918Z,2.33
2017-08-06T06:23:15.366Z,2.47
2017-08-06T06:25:43.571Z,2.80
2017-08-06T06:28:11.039Z,2.10
2017-08-06T06:30:38.482Z,2.47
2017-08-06T06:33:05.919Z,2.40
2017-08-06T06:35:34.162Z,2.40
2017-08-06T06:38:01.607Z,3.03
2017-08-06T06:40:29.052Z,2.53
2017-08-06T06:42:56.502Z,2.67
2017-08-06T06:45:23.955Z,2.90
2017-08-06T06:47:51.406Z,2.73
2017-08-06T06:50:18.864Z,2.60
2017-08-06T06:52:46.304Z,2.40
2017-08-06T06:55:13.754Z,3.00
2017-08-06T06:57:41.186Z,2.87
2017-08-06T07:00:08.656Z,2.50
2017-08-06T07:02:36.587Z,3.00
2017-08-06T07:05:04.023Z,3.10
2017-08-06T07:07:31.466Z,2.77
2017-08-06T07:09:59.041Z,2.77
2017-08-06T07:12:26.506Z,3.03
2017-08-06T07:14:53.946Z,2.70
2017-08-06T07:17:21.562Z,2.77
2017-08-06T07:19:49.773Z,2.80
2017-08-06T07:22:17.232Z,3.13
2017-08-06T07:24:44.683Z,3.53
2017-08-06T07:27:12.127Z,3.07
2017-08-06T07:29:39.574Z,2.50
2017-08-06T07:32:07.031Z,2.80
2017-08-06T07:34:34.470Z,3.03
2017-08-06T07:37:01.912Z,3.00
2017-08-06T07:39:29.363Z,2.30
2017-08-06T07:41:56.798Z,2.47
2017-08-06T07:44:24.242Z,2.80
2017-08-06T07:46:51.688Z,2.20
2017-08-06T07:49:19.143Z,3.33
2017-08-06T07:51:46.593Z,2.67
2017-08-06T07:54:14.043Z,2.90
2017-08-06T07:56:41.490Z,2.87
2017-08-06T07:59:08.935Z,2.47
2017-08-06T08:01:36.379Z,3.10
2017-08-06T08:04:04.627Z,2.10
2017-08-06T08:06:32.078Z,2.60
2017-08-06T08:08:59.522Z,2.90
2017-08-06T08:11:26.971Z,2.80
2017-08-06T08:13:54.491Z,2.40
2017-08-06T08:16:22.699Z,2.40
2017-08-06T08:18:50.158Z,2.70
2017-08-06T08:21:17.598Z,2.60
2017-08-06T08:23:45.039Z,2.73
2017-08-06T08:26:12.482Z,2.70
2017-08-06T08:28:40.699Z,2.70
2017-08-06T08:31:08.138Z,2.70
2017-08-06T08:33:35.578Z,2.80
2017-08-06T08:36:03.026Z,2.40
2017-08-06T08:38:31.243Z,2.40
2017-08-06T08:40:58.684Z,2.37
2017-08-06T08:43:26.192Z,2.57
2017-08-06T08:45:53.644Z,2.63
2017-08-06T08:48:21.079Z,2.60
2017-08-06T08:50:48.522Z,2.20
2017-08-06T08:53:15.958Z,2.20
2017-08-06T08:55:43.408Z,2.73
2017-08-06T08:58:10.853Z,2.20
2017-08-06T09:00:39.072Z,2.20
2017-08-06T09:03:06.514Z,2.30
2017-08-06T09:05:33.964Z,1.80
2017-08-06T09:08:01.424Z,2.00
2017-08-06T09:10:28.962Z,1.70
2017-08-06T09:12:57.193Z,1.83
2017-08-06T09:15:24.715Z,1.90
2017-08-06T09:17:52.159Z,1.90
2017-08-06T09:20:19.603Z,2.20
2017-08-06T09:22:47.824Z,1.90
2017-08-06T09:25:15.271Z,1.97
2017-08-06T09:27:42.727Z,1.60
2017-08-06T09:30:10.168Z,1.60
2017-08-06T09:32:37.620Z,1.40
2017-08-06T09:35:05.067Z,1.90
2017-08-06T09:37:32.518Z,1.40
2017-08-06T09:40:00.723Z,2.07
2017-08-06T09:42:28.166Z,1.90
2017-08-06T09:44:55.609Z,1.80
2017-08-06T09:47:23.042Z,1.60
2017-08-06T09:49:51.264Z,1.70
2017-08-06T09:52:18.724Z,1.70
2017-08-06T09:54:46.195Z,1.40
2017-08-06T09:57:13.636Z,1.83
2017-08-06T09:59:41.091Z,1.50
2017-08-06T10:02:08.537Z,1.80
2017-08-06T10:04:35.978Z,1.50
2017-08-06T10:07:03.414Z,1.93
2017-08-06T10:09:30.871Z,1.50
2017-08-06T10:11:59.087Z,1.60
2017-08-06T10:14:26.525Z,1.70
2017-08-06T10:16:53.969Z,1.30
2017-08-06T10:19:22.174Z,1.63
2017-08-06T10:21:49.636Z,1.43
2017-08-06T10:24:17.112Z,1.60
2017-08-06T10:26:44.554Z,1.33
2017-08-06T10:29:12.005Z,1.60
2017-08-06T10:31:39.456Z,1.67
2017-08-06T10:34:06.920Z,1.57
2017-08-06T10:36:34.371Z,1.90
2017-08-06T10:39:01.927Z,1.80
2017-08-06T10:41:29.361Z,1.83
2017-08-06T10:43:56.798Z,1.83
2017-08-06T10:46:25.017Z,1.90
2017-08-06T10:48:52.471Z,1.37
2017-08-06T10:51:19.932Z,1.57
2017-08-06T10:53:47.395Z,1.50
2017-08-06T10:56:14.843Z,1.37
2017-08-06T10:58:42.296Z,1.33
2017-08-06T11:01:09.726Z,1.70
2017-08-06T11:03:37.171Z,1.23
2017-08-06T11:06:05.383Z,1.40
2017-08-06T11:08:32.840Z,1.17
2017-08-06T11:11:00.297Z,1.80
2017-08-06T11:13:27.753Z,1.60
2017-08-06T11:15:55.219Z,2.07
2017-08-06T11:18:22.672Z,1.50
2017-08-06T11:20:50.120Z,1.43
2017-08-06T11:23:17.575Z,1.33
2017-08-06T11:25:45.032Z,1.67
2017-08-06T11:28:12.494Z,1.60
2017-08-06T11:30:39.944Z,1.70
2017-08-06T11:33:07.412Z,1.97
2017-08-06T11:35:34.859Z,1.90
2017-08-06T11:38:02.312Z,1.87
2017-08-06T11:40:29.767Z,1.50
2017-08-06T11:42:57.210Z,2.20
2017-08-06T11:45:25.022Z,2.10
2017-08-06T11:47:52.484Z,1.73
2017-08-06T11:50:19.946Z,2.00
2017-08-06T11:52:47.409Z,1.93
2017-08-06T11:55:14.852Z,2.00
2017-08-06T11:57:42.327Z,1.63
2017-08-06T12:00:10.538Z,1.87
2017-08-06T12:02:37.984Z,1.70
2017-08-06T12:05:05.895Z,1.67
2017-08-06T12:07:33.340Z,1.73
2017-08-06T12:10:00.779Z,1.97
2017-08-06T12:12:28.247Z,2.10
2017-08-06T12:14:55.694Z,2.00
2017-08-06T12:17:23.147Z,1.70
2017-08-06T12:19:50.592Z,1.57
2017-08-06T12:22:18.046Z,2.00
2017-08-06T12:24:45.496Z,1.80
2017-08-06T12:27:12.945Z,1.30
2017-08-06T12:29:41.185Z,2.20
2017-08-06T12:32:08.638Z,1.87
2017-08-06T12:34:36.643Z,1.60
2017-08-06T12:37:04.749Z,1.90
2017-08-06T12:39:32.204Z,1.77
2017-08-06T12:41:59.694Z,2.13
2017-08-06T12:44:27.139Z,1.90
2017-08-06T12:46:54.588Z,2.00
2017-08-06T12:49:22.046Z,2.13
2017-08-06T12:51:49.498Z,1.40
2017-08-06T12:54:16.957Z,1.80
2017-08-06T12:56:44.413Z,1.83
2017-08-06T12:59:11.854Z,1.80
2017-08-06T13:01:39.312Z,1.53
2017-08-06T13:04:06.839Z,1.50
2017-08-06T13:06:34.283Z,1.70
2017-08-06T13:09:02.500Z,1.40
2017-08-06T13:11:29.939Z,1.50
2017-08-06T13:13:57.374Z,1.70
2017-08-06T13:16:25.595Z,1.70
2017-08-06T13:18:53.039Z,1.70
2017-08-06T13:21:20.495Z,1.90
2017-08-06T13:23:47.952Z,1.53
2017-08-06T13:26:15.391Z,1.47
2017-08-06T13:28:42.831Z,1.50
2017-08-06T13:31:10.272Z,1.90
2017-08-06T13:33:38.495Z,1.70
2017-08-06T13:36:05.954Z,1.97
2017-08-06T13:38:33.412Z,1.80
2017-08-06T13:41:00.864Z,1.70
2017-08-06T13:43:28.316Z,1.50
2017-08-06T13:45:55.768Z,1.80
2017-08-06T13:48:23.241Z,1.90
2017-08-06T13:50:50.692Z,1.60
2017-08-06T13:53:18.144Z,1.67
2017-08-06T13:55:45.598Z,1.67
2017-08-06T13:58:13.055Z,1.60
2017-08-06T14:00:40.512Z,1.70
2017-08-06T14:03:07.967Z,1.67
2017-08-06T14:05:35.422Z,1.77
2017-08-06T14:08:02.883Z,1.57
2017-08-06T14:10:30.336Z,1.40
2017-08-06T14:12:57.795Z,1.47
2017-08-06T14:15:25.251Z,1.40
2017-08-06T14:17:52.691Z,1.93
2017-08-06T14:20:20.166Z,1.50
2017-08-06T14:22:47.612Z,1.70
2017-08-06T14:25:15.074Z,1.60
2017-08-06T14:27:42.525Z,1.80
2017-08-06T14:30:09.982Z,1.63
2017-08-06T14:32:37.431Z,1.60
2017-08-06T14:35:04.867Z,2.30
2017-08-06T14:37:32.321Z,1.50
2017-08-06T14:40:00.531Z,1.57
2017-08-06T14:42:27.987Z,1.43
2017-08-06T14:44:55.428Z,1.87
2017-08-06T14:47:22.874Z,1.47
2017-08-06T14:49:50.314Z,1.50
2017-08-06T14:52:18.532Z,1.97
2017-08-06T14:54:45.983Z,1.70
2017-08-06T14:57:13.440Z,1.57
2017-08-06T14:59:40.882Z,1.70
2017-08-06T15:02:08.327Z,1.97
2017-08-06T15:04:35.787Z,1.80
2017-08-06T15:07:03.227Z,1.87
2017-08-06T15:09:31.441Z,1.97
2017-08-06T15:11:58.895Z,2.50
2017-08-06T15:14:26.352Z,1.60
2017-08-06T15:16:53.799Z,2.10
2017-08-06T15:19:21.244Z,2.13
2017-08-06T15:21:48.679Z,1.57
2017-08-06T15:24:16.896Z,2.00
2017-08-06T15:26:44.347Z,3.90
2017-08-06T15:29:11.820Z,7.60
2017-08-06T15:31:39.258Z,8.50
2017-08-06T15:34:06.714Z,7.10
2017-08-06T15:36:34.170Z,2.90
2017-08-06T15:39:01.614Z,1.87
2017-08-06T15:41:29.071Z,2.07
2017-08-06T15:43:56.519Z,1.60
2017-08-06T15:46:23.978Z,2.00
2017-08-06T15:48:51.414Z,1.83
2017-08-06T15:51:19.644Z,1.60
2017-08-06T15:53:47.151Z,2.20
2017-08-06T15:56:15.364Z,1.90
2017-08-06T15:58:42.815Z,1.80
2017-08-06T16:01:10.271Z,1.83
2017-08-06T16:03:37.728Z,2.30
2017-08-06T16:06:05.186Z,1.93
2017-08-06T16:08:32.626Z,1.80
2017-08-06T16:11:00.076Z,1.80
2017-08-06T16:13:27.536Z,2.37
2017-08-06T16:15:54.973Z,3.93
2017-08-06T16:18:22.419Z,3.53
2017-08-06T16:20:49.854Z,2.87
2017-08-06T16:23:17.298Z,2.70
2017-08-06T16:25:44.734Z,2.60
2017-08-06T16:28:12.193Z,2.10
2017-08-06T16:30:39.664Z,1.77
2017-08-06T16:33:07.111Z,3.73
2017-08-06T16:35:34.562Z,2.90
2017-08-06T16:38:02.006Z,7.90
2017-08-06T16:40:29.459Z,6.70
2017-08-06T16:42:56.907Z,3.07
2017-08-06T16:45:24.362Z,11.90
2017-08-06T16:47:51.797Z,3.77
2017-08-06T16:50:19.239Z,2.97
2017-08-06T16:52:47.452Z,2.63
2017-08-06T16:55:14.907Z,3.67
2017-08-06T16:57:42.366Z,3.23
2017-08-06T17:00:09.836Z,2.13
2017-08-06T17:02:37.275Z,2.23
2017-08-06T17:05:04.714Z,2.00
2017-08-06T17:07:32.163Z,2.07
2017-08-06T17:09:59.609Z,1.70
2017-08-06T17:12:27.830Z,2.47
2017-08-06T17:14:55.274Z,2.00
2017-08-06T17:17:22.727Z,3.93
2017-08-06T17:19:50.166Z,3.07
2017-08-06T17:22:17.685Z,2.93
2017-08-06T17:24:45.136Z,3.17
2017-08-06T17:27:12.580Z,6.90
2017-08-06T17:29:40.042Z,6.07
2017-08-06T17:32:07.540Z,3.60
2017-08-06T17:34:34.995Z,4.67
2017-08-06T17:37:03.198Z,7.93
2017-08-06T17:39:30.670Z,8.43
2017-08-06T17:41:58.115Z,9.30
2017-08-06T17:44:25.566Z,4.13
2017-08-06T17:46:53.006Z,3.83
2017-08-06T17:49:20.461Z,2.70
2017-08-06T17:51:47.890Z,2.27
2017-08-06T17:54:16.111Z,2.63
2017-08-06T17:56:43.565Z,2.33
2017-08-06T17:59:11.008Z,2.20
2017-08-06T18:01:38.445Z,2.47
2017-08-06T18:04:05.902Z,2.67
2017-08-06T18:06:33.343Z,2.70
2017-08-06T18:09:01.586Z,2.97
2017-08-06T18:11:29.040Z,2.40
2017-08-06T18:13:56.492Z,2.67
2017-08-06T18:16:23.947Z,2.80
2017-08-06T18:18:51.392Z,3.17
2017-08-06T18:21:18.845Z,2.70
2017-08-06T18:23:46.274Z,2.73
2017-08-06T18:26:13.719Z,3.00
2017-08-06T18:28:41.933Z,2.60
2017-08-06T18:31:09.391Z,3.20
2017-08-06T18:33:36.866Z,3.30
2017-08-06T18:36:04.310Z,2.77
2017-08-06T18:38:31.758Z,3.10
2017-08-06T18:40:59.214Z,3.40
2017-08-06T18:43:26.660Z,3.27
2017-08-06T18:45:54.127Z,3.00
2017-08-06T18:48:21.577Z,3.50
2017-08-06T18:50:49.026Z,3.00
2017-08-06T18:53:16.470Z,2.77
2017-08-06T18:55:43.920Z,2.60
2017-08-06T18:58:11.380Z,3.23
2017-08-06T19:00:39.578Z,3.00
2017-08-06T19:03:07.040Z,3.17
2017-08-06T19:05:34.482Z,3.40
2017-08-06T19:08:01.922Z,3.07
2017-08-06T19:10:29.407Z,3.30
2017-08-06T19:12:56.863Z,3.17
2017-08-06T19:15:24.304Z,2.90
2017-08-06T19:17:51.752Z,3.07
2017-08-06T19:20:19.211Z,3.10
2017-08-06T19:22:46.687Z,2.67
2017-08-06T19:25:14.132Z,2.97
2017-08-06T19:27:41.571Z,2.90
2017-08-06T19:30:09.021Z,3.13
2017-08-06T19:32:37.230Z,3.30
2017-08-06T19:35:04.686Z,3.07
2017-08-06T19:37:32.128Z,3.07
2017-08-06T19:39:59.571Z,3.13
2017-08-06T19:42:27.008Z,3.67
2017-08-06T19:44:55.226Z,3.53
2017-08-06T19:47:22.655Z,2.97
2017-08-06T19:49:50.095Z,3.40
2017-08-06T19:52:18.311Z,3.17
2017-08-06T19:54:45.769Z,3.40
2017-08-06T19:57:13.220Z,3.10
2017-08-06T19:59:40.655Z,3.30
2017-08-06T20:02:08.098Z,3.37
2017-08-06T20:04:36.311Z,3.20
2017-08-06T20:07:03.751Z,2.70
2017-08-06T20:09:31.190Z,3.77
2017-08-06T20:11:59.399Z,3.00
2017-08-06T20:14:26.852Z,3.30
2017-08-06T20:16:54.310Z,2.70
2017-08-06T20:19:21.766Z,3.33
2017-08-06T20:21:49.223Z,3.10
2017-08-06T20:24:16.663Z,3.07
2017-08-06T20:26:44.115Z,2.83
2017-08-06T20:29:11.546Z,2.80
2017-08-06T20:31:39.766Z,3.53
2017-08-06T20:34:07.222Z,3.30
2017-08-06T20:36:34.663Z,3.67
2017-08-06T20:39:02.166Z,2.80
2017-08-06T20:41:29.603Z,3.03
2017-08-06T20:43:57.059Z,3.80
2017-08-06T20:46:24.506Z,3.33
2017-08-06T20:48:51.960Z,3.47
2017-08-06T20:51:19.408Z,3.33
2017-08-06T20:53:46.851Z,3.03
2017-08-06T20:56:14.290Z,3.60
2017-08-06T20:58:42.530Z,3.00
2017-08-06T21:01:09.978Z,3.37
2017-08-06T21:03:37.446Z,2.80
2017-08-06T21:06:04.891Z,2.70
2017-08-06T21:08:32.334Z,2.60
2017-08-06T21:10:59.795Z,3.40
2017-08-06T21:13:27.253Z,3.30
2017-08-06T21:15:54.706Z,3.13
2017-08-06T21:18:22.149Z,3.43
2017-08-06T21:20:49.606Z,3.00
2017-08-06T21:23:17.076Z,3.07
2017-08-06T21:25:44.533Z,3.60
2017-08-06T21:28:12.011Z,3.03
2017-08-06T21:30:39.467Z,2.87
2017-08-06T21:33:06.897Z,2.70
2017-08-06T21:35:34.342Z,3.10
2017-08-06T21:38:01.781Z,3.30
2017-08-06T21:40:29.243Z,2.90
2017-08-06T21:42:56.683Z,2.87
2017-08-06T21:45:24.128Z,3.57
2017-08-06T21:47:52.343Z,3.40
2017-08-06T21:50:19.783Z,3.00
2017-08-06T21:52:47.236Z,2.53
2017-08-06T21:55:14.675Z,3.30
2017-08-06T21:57:42.883Z,2.93
2017-08-06T22:00:10.333Z,3.00
2017-08-06T22:02:37.770Z,3.20
2017-08-06T22:05:05.212Z,2.83
2017-08-06T22:07:33.431Z,3.40
2017-08-06T22:10:00.877Z,2.80
2017-08-06T22:12:28.314Z,3.00
2017-08-06T22:14:55.747Z,3.50
2017-08-06T22:17:23.972Z,2.90
2017-08-06T22:19:51.406Z,3.03
2017-08-06T22:22:18.848Z,3.03
2017-08-06T22:24:46.307Z,2.90
2017-08-06T22:27:13.748Z,2.97
2017-08-06T22:29:41.971Z,2.37
2017-08-06T22:32:09.406Z,2.77
2017-08-06T22:34:36.970Z,2.93
2017-08-06T22:37:04.403Z,2.70
2017-08-06T22:39:32.611Z,3.10
2017-08-06T22:42:00.055Z,2.87
2017-08-06T22:44:27.502Z,2.80
2017-08-06T22:46:54.955Z,3.33
2017-08-06T22:49:22.386Z,2.90
2017-08-06T22:51:50.604Z,3.03
2017-08-06T22:54:18.064Z,3.30
2017-08-06T22:56:45.498Z,2.40
2017-08-06T22:59:12.939Z,2.67
2017-08-06T23:01:41.155Z,3.10
2017-08-06T23:04:08.610Z,2.90
2017-08-06T23:06:36.051Z,3.20
2017-08-06T23:09:03.508Z,2.90
2017-08-06T23:11:30.947Z,3.20
2017-08-06T23:13:58.399Z,3.13
2017-08-06T23:16:26.608Z,2.63
2017-08-06T23:18:54.060Z,3.27
2017-08-06T23:21:21.495Z,2.83
2017-08-06T23:23:48.939Z,3.10
2017-08-06T23:26:16.390Z,2.60
2017-08-06T23:28:44.603Z,2.80
2017-08-06T23:31:12.043Z,2.90
2017-08-06T23:33:39.518Z,3.47
2017-08-06T23:36:06.955Z,2.87
2017-08-06T23:38:34.395Z,3.27
2017-08-06T23:41:01.844Z,2.90
2017-08-06T23:43:30.053Z,3.23
2017-08-06T23:45:57.518Z,2.80
2017-08-06T23:48:24.965Z,2.97
2017-08-06T23:50:52.408Z,2.90
2017-08-06T23:53:19.838Z,2.90
2017-08-06T23:55:48.061Z,3.00
2017-08-06T23:58:15.512Z,2.70
